sensor_id;sensor_type;location;lat;lon;timestamp;P1;durP1;ratioP1;P2;durP2;ratioP2
25663;SDS011;13522;50.018;20.014;2023-07-02T00:02:43;27.20;;;22.95;;
25663;SDS011;13522;50.018;20.014;2023-07-02T00:05:55;28.20;;;22.75;;
25663;SDS011;13522;50.018;20.014;2023-07-02T00:09:07;27.18;;;22.95;;
25663;SDS011;13522;50.018;20.014;2023-07-02T00:12:20;33.18;;;24.23;;
25663;SDS011;13522;50.018;20.014;2023-07-02T00:15:32;30.25;;;21.48;;
25663;SDS011;13522;50.018;20.014;2023-07-02T00:18:45;27.88;;;22.53;;
25663;SDS011;13522;50.018;20.014;2023-07-02T00:21:58;26.48;;;22.33;;
25663;SDS011;13522;50.018;20.014;2023-07-02T00:25:10;26.65;;;22.43;;
25663;SDS011;13522;50.018;20.014;2023-07-02T00:28:23;27.15;;;21.53;;
25663;SDS011;13522;50.018;20.014;2023-07-02T00:31:36;27.58;;;22.18;;
25663;SDS011;13522;50.018;20.014;2023-07-02T00:34:48;25.88;;;21.98;;
25663;SDS011;13522;50.018;20.014;2023-07-02T00:38:00;29.70;;;23.02;;
25663;SDS011;13522;50.018;20.014;2023-07-02T00:41:13;27.60;;;22.78;;
25663;SDS011;13522;50.018;20.014;2023-07-02T00:44:27;33.00;;;22.78;;
25663;SDS011;13522;50.018;20.014;2023-07-02T00:47:41;29.55;;;23.28;;
25663;SDS011;13522;50.018;20.014;2023-07-02T00:50:55;28.85;;;23.28;;
25663;SDS011;13522;50.018;20.014;2023-07-02T00:54:08;30.18;;;23.35;;
25663;SDS011;13522;50.018;20.014;2023-07-02T00:57:20;30.13;;;22.88;;
25663;SDS011;13522;50.018;20.014;2023-07-02T01:00:35;29.15;;;22.93;;
25663;SDS011;13522;50.018;20.014;2023-07-02T01:03:51;26.13;;;22.05;;
25663;SDS011;13522;50.018;20.014;2023-07-02T01:07:07;34.35;;;22.00;;
25663;SDS011;13522;50.018;20.014;2023-07-02T01:10:21;26.23;;;22.10;;
25663;SDS011;13522;50.018;20.014;2023-07-02T01:13:35;26.30;;;22.18;;
25663;SDS011;13522;50.018;20.014;2023-07-02T01:16:48;26.25;;;21.80;;
25663;SDS011;13522;50.018;20.014;2023-07-02T01:20:04;24.95;;;21.68;;
25663;SDS011;13522;50.018;20.014;2023-07-02T01:23:20;25.90;;;21.63;;
25663;SDS011;13522;50.018;20.014;2023-07-02T01:26:33;27.25;;;22.05;;
25663;SDS011;13522;50.018;20.014;2023-07-02T01:29:46;24.00;;;19.80;;
25663;SDS011;13522;50.018;20.014;2023-07-02T01:33:00;23.63;;;19.05;;
25663;SDS011;13522;50.018;20.014;2023-07-02T01:36:13;20.50;;;18.30;;
25663;SDS011;13522;50.018;20.014;2023-07-02T01:39:25;27.00;;;18.98;;
25663;SDS011;13522;50.018;20.014;2023-07-02T01:42:38;22.25;;;18.13;;
25663;SDS011;13522;50.018;20.014;2023-07-02T01:45:50;21.18;;;18.83;;
25663;SDS011;13522;50.018;20.014;2023-07-02T01:49:03;22.53;;;18.13;;
25663;SDS011;13522;50.018;20.014;2023-07-02T01:52:16;23.33;;;18.08;;
25663;SDS011;13522;50.018;20.014;2023-07-02T01:55:28;21.55;;;17.10;;
25663;SDS011;13522;50.018;20.014;2023-07-02T01:58:41;23.35;;;17.68;;
25663;SDS011;13522;50.018;20.014;2023-07-02T02:01:53;22.55;;;18.23;;
25663;SDS011;13522;50.018;20.014;2023-07-02T02:05:06;21.25;;;18.05;;
25663;SDS011;13522;50.018;20.014;2023-07-02T02:08:19;19.80;;;16.58;;
25663;SDS011;13522;50.018;20.014;2023-07-02T02:11:32;24.25;;;18.80;;
25663;SDS011;13522;50.018;20.014;2023-07-02T02:14:47;21.93;;;18.23;;
25663;SDS011;13522;50.018;20.014;2023-07-02T02:18:00;23.83;;;19.35;;
25663;SDS011;13522;50.018;20.014;2023-07-02T02:21:12;25.13;;;19.53;;
25663;SDS011;13522;50.018;20.014;2023-07-02T02:24:25;24.80;;;19.95;;
25663;SDS011;13522;50.018;20.014;2023-07-02T02:27:38;26.15;;;20.75;;
25663;SDS011;13522;50.018;20.014;2023-07-02T02:30:50;25.53;;;20.23;;
25663;SDS011;13522;50.018;20.014;2023-07-02T02:34:03;23.40;;;19.53;;
25663;SDS011;13522;50.018;20.014;2023-07-02T02:37:15;20.52;;;18.15;;
25663;SDS011;13522;50.018;20.014;2023-07-02T02:40:28;23.98;;;19.33;;
25663;SDS011;13522;50.018;20.014;2023-07-02T02:43:42;22.55;;;18.25;;
25663;SDS011;13522;50.018;20.014;2023-07-02T02:46:56;23.65;;;18.50;;
25663;SDS011;13522;50.018;20.014;2023-07-02T02:50:12;20.78;;;16.73;;
25663;SDS011;13522;50.018;20.014;2023-07-02T02:53:24;20.93;;;17.48;;
25663;SDS011;13522;50.018;20.014;2023-07-02T02:56:36;21.63;;;17.40;;
25663;SDS011;13522;50.018;20.014;2023-07-02T02:59:49;20.38;;;16.75;;
25663;SDS011;13522;50.018;20.014;2023-07-02T03:03:01;21.28;;;16.75;;
25663;SDS011;13522;50.018;20.014;2023-07-02T03:06:14;18.58;;;16.25;;
25663;SDS011;13522;50.018;20.014;2023-07-02T03:09:27;21.93;;;16.58;;
25663;SDS011;13522;50.018;20.014;2023-07-02T03:12:39;20.00;;;16.63;;
25663;SDS011;13522;50.018;20.014;2023-07-02T03:15:52;22.48;;;17.15;;
25663;SDS011;13522;50.018;20.014;2023-07-02T03:19:04;19.75;;;16.63;;
25663;SDS011;13522;50.018;20.014;2023-07-02T03:22:18;23.75;;;17.30;;
25663;SDS011;13522;50.018;20.014;2023-07-02T03:25:31;22.10;;;16.45;;
25663;SDS011;13522;50.018;20.014;2023-07-02T03:28:43;21.18;;;17.95;;
25663;SDS011;13522;50.018;20.014;2023-07-02T03:31:55;20.52;;;15.63;;
25663;SDS011;13522;50.018;20.014;2023-07-02T03:35:08;19.70;;;17.05;;
25663;SDS011;13522;50.018;20.014;2023-07-02T03:38:20;21.85;;;16.93;;
25663;SDS011;13522;50.018;20.014;2023-07-02T03:41:33;21.60;;;16.55;;
25663;SDS011;13522;50.018;20.014;2023-07-02T03:44:45;21.15;;;16.95;;
25663;SDS011;13522;50.018;20.014;2023-07-02T03:47:57;20.33;;;15.90;;
25663;SDS011;13522;50.018;20.014;2023-07-02T03:51:10;22.93;;;17.55;;
25663;SDS011;13522;50.018;20.014;2023-07-02T03:54:23;19.58;;;16.25;;
25663;SDS011;13522;50.018;20.014;2023-07-02T03:57:36;19.80;;;16.50;;
25663;SDS011;13522;50.018;20.014;2023-07-02T04:00:48;21.13;;;17.68;;
25663;SDS011;13522;50.018;20.014;2023-07-02T04:04:00;21.88;;;18.00;;
25663;SDS011;13522;50.018;20.014;2023-07-02T04:07:13;25.45;;;18.10;;
25663;SDS011;13522;50.018;20.014;2023-07-02T04:10:26;28.58;;;19.70;;
25663;SDS011;13522;50.018;20.014;2023-07-02T04:13:38;27.10;;;18.75;;
25663;SDS011;13522;50.018;20.014;2023-07-02T04:16:51;21.98;;;18.43;;
25663;SDS011;13522;50.018;20.014;2023-07-02T04:20:06;22.58;;;17.33;;
25663;SDS011;13522;50.018;20.014;2023-07-02T04:23:20;21.43;;;16.15;;
25663;SDS011;13522;50.018;20.014;2023-07-02T04:26:33;18.78;;;15.18;;
25663;SDS011;13522;50.018;20.014;2023-07-02T04:29:49;21.83;;;14.83;;
25663;SDS011;13522;50.018;20.014;2023-07-02T04:33:01;17.70;;;13.63;;
25663;SDS011;13522;50.018;20.014;2023-07-02T04:36:16;18.38;;;14.70;;
25663;SDS011;13522;50.018;20.014;2023-07-02T04:39:28;18.80;;;14.00;;
25663;SDS011;13522;50.018;20.014;2023-07-02T04:42:41;16.25;;;13.30;;
25663;SDS011;13522;50.018;20.014;2023-07-02T04:45:56;16.25;;;13.28;;
25663;SDS011;13522;50.018;20.014;2023-07-02T04:49:11;17.55;;;12.85;;
25663;SDS011;13522;50.018;20.014;2023-07-02T04:52:23;18.18;;;12.65;;
25663;SDS011;13522;50.018;20.014;2023-07-02T04:55:35;18.63;;;12.35;;
25663;SDS011;13522;50.018;20.014;2023-07-02T04:58:48;14.50;;;11.88;;
25663;SDS011;13522;50.018;20.014;2023-07-02T05:02:00;14.68;;;12.08;;
25663;SDS011;13522;50.018;20.014;2023-07-02T05:05:13;17.78;;;13.73;;
25663;SDS011;13522;50.018;20.014;2023-07-02T05:08:25;17.23;;;11.50;;
25663;SDS011;13522;50.018;20.014;2023-07-02T05:11:38;15.15;;;11.30;;
25663;SDS011;13522;50.018;20.014;2023-07-02T05:14:50;14.50;;;10.40;;
25663;SDS011;13522;50.018;20.014;2023-07-02T05:18:02;16.38;;;11.25;;
25663;SDS011;13522;50.018;20.014;2023-07-02T05:21:18;16.15;;;11.65;;
25663;SDS011;13522;50.018;20.014;2023-07-02T05:24:31;14.65;;;10.88;;
25663;SDS011;13522;50.018;20.014;2023-07-02T05:27:45;13.13;;;10.75;;
25663;SDS011;13522;50.018;20.014;2023-07-02T05:30:58;12.53;;;10.50;;
25663;SDS011;13522;50.018;20.014;2023-07-02T05:34:10;14.53;;;11.20;;
25663;SDS011;13522;50.018;20.014;2023-07-02T05:37:23;13.60;;;10.85;;
25663;SDS011;13522;50.018;20.014;2023-07-02T05:40:35;16.75;;;11.03;;
25663;SDS011;13522;50.018;20.014;2023-07-02T05:43:47;14.33;;;10.65;;
25663;SDS011;13522;50.018;20.014;2023-07-02T05:47:00;12.93;;;10.55;;
25663;SDS011;13522;50.018;20.014;2023-07-02T05:50:13;12.55;;;9.53;;
25663;SDS011;13522;50.018;20.014;2023-07-02T05:53:26;12.63;;;8.35;;
25663;SDS011;13522;50.018;20.014;2023-07-02T05:56:38;13.00;;;9.85;;
25663;SDS011;13522;50.018;20.014;2023-07-02T05:59:50;11.18;;;8.33;;
25663;SDS011;13522;50.018;20.014;2023-07-02T06:03:02;11.45;;;8.93;;
25663;SDS011;13522;50.018;20.014;2023-07-02T06:06:15;10.60;;;8.13;;
25663;SDS011;13522;50.018;20.014;2023-07-02T06:09:28;11.08;;;7.85;;
25663;SDS011;13522;50.018;20.014;2023-07-02T06:12:41;9.90;;;7.38;;
25663;SDS011;13522;50.018;20.014;2023-07-02T06:15:53;11.18;;;7.93;;
25663;SDS011;13522;50.018;20.014;2023-07-02T06:19:05;10.40;;;7.60;;
25663;SDS011;13522;50.018;20.014;2023-07-02T06:22:18;11.70;;;7.10;;
25663;SDS011;13522;50.018;20.014;2023-07-02T06:25:30;8.48;;;6.70;;
25663;SDS011;13522;50.018;20.014;2023-07-02T06:28:43;13.00;;;7.83;;
25663;SDS011;13522;50.018;20.014;2023-07-02T06:31:55;11.43;;;8.20;;
25663;SDS011;13522;50.018;20.014;2023-07-02T06:35:08;10.20;;;6.58;;
25663;SDS011;13522;50.018;20.014;2023-07-02T06:38:20;10.08;;;6.75;;
25663;SDS011;13522;50.018;20.014;2023-07-02T06:41:34;7.50;;;6.30;;
25663;SDS011;13522;50.018;20.014;2023-07-02T06:44:46;10.65;;;6.78;;
25663;SDS011;13522;50.018;20.014;2023-07-02T06:47:59;11.58;;;6.18;;
25663;SDS011;13522;50.018;20.014;2023-07-02T06:51:12;17.88;;;14.50;;
25663;SDS011;13522;50.018;20.014;2023-07-02T06:54:26;10.48;;;7.65;;
25663;SDS011;13522;50.018;20.014;2023-07-02T06:57:43;13.33;;;6.13;;
25663;SDS011;13522;50.018;20.014;2023-07-02T07:00:56;7.23;;;5.20;;
25663;SDS011;13522;50.018;20.014;2023-07-02T07:04:09;8.15;;;4.93;;
25663;SDS011;13522;50.018;20.014;2023-07-02T07:07:22;7.65;;;5.15;;
25663;SDS011;13522;50.018;20.014;2023-07-02T07:10:36;8.60;;;5.90;;
25663;SDS011;13522;50.018;20.014;2023-07-02T07:13:50;9.53;;;5.08;;
25663;SDS011;13522;50.018;20.014;2023-07-02T07:17:03;9.15;;;5.45;;
25663;SDS011;13522;50.018;20.014;2023-07-02T07:20:16;7.33;;;5.03;;
25663;SDS011;13522;50.018;20.014;2023-07-02T07:23:29;15.83;;;4.95;;
25663;SDS011;13522;50.018;20.014;2023-07-02T07:26:41;14.28;;;5.83;;
25663;SDS011;13522;50.018;20.014;2023-07-02T07:29:54;7.85;;;4.73;;
25663;SDS011;13522;50.018;20.014;2023-07-02T07:33:07;7.30;;;4.95;;
25663;SDS011;13522;50.018;20.014;2023-07-02T07:36:20;9.70;;;5.03;;
25663;SDS011;13522;50.018;20.014;2023-07-02T07:39:33;7.13;;;4.90;;
25663;SDS011;13522;50.018;20.014;2023-07-02T07:42:46;10.73;;;5.98;;
25663;SDS011;13522;50.018;20.014;2023-07-02T07:45:58;11.93;;;5.65;;
25663;SDS011;13522;50.018;20.014;2023-07-02T07:49:11;9.28;;;6.13;;
25663;SDS011;13522;50.018;20.014;2023-07-02T07:52:24;7.90;;;4.73;;
25663;SDS011;13522;50.018;20.014;2023-07-02T07:55:36;10.50;;;5.38;;
25663;SDS011;13522;50.018;20.014;2023-07-02T07:58:48;10.03;;;5.28;;
25663;SDS011;13522;50.018;20.014;2023-07-02T08:02:01;8.43;;;4.80;;
25663;SDS011;13522;50.018;20.014;2023-07-02T08:05:15;6.50;;;4.85;;
25663;SDS011;13522;50.018;20.014;2023-07-02T08:08:30;10.15;;;4.88;;
25663;SDS011;13522;50.018;20.014;2023-07-02T08:11:42;7.25;;;4.50;;
25663;SDS011;13522;50.018;20.014;2023-07-02T08:14:55;9.05;;;4.83;;
25663;SDS011;13522;50.018;20.014;2023-07-02T08:18:09;16.83;;;9.50;;
25663;SDS011;13522;50.018;20.014;2023-07-02T08:21:22;13.55;;;8.20;;
25663;SDS011;13522;50.018;20.014;2023-07-02T08:24:35;9.28;;;4.95;;
25663;SDS011;13522;50.018;20.014;2023-07-02T08:27:47;8.93;;;4.80;;
25663;SDS011;13522;50.018;20.014;2023-07-02T08:31:01;7.70;;;4.50;;
25663;SDS011;13522;50.018;20.014;2023-07-02T08:34:16;6.80;;;4.38;;
25663;SDS011;13522;50.018;20.014;2023-07-02T08:37:28;8.65;;;4.35;;
25663;SDS011;13522;50.018;20.014;2023-07-02T08:40:44;6.07;;;4.47;;
25663;SDS011;13522;50.018;20.014;2023-07-02T08:43:57;8.23;;;4.40;;
25663;SDS011;13522;50.018;20.014;2023-07-02T08:47:10;7.53;;;5.33;;
25663;SDS011;13522;50.018;20.014;2023-07-02T08:50:24;10.13;;;4.10;;
25663;SDS011;13522;50.018;20.014;2023-07-02T08:53:39;8.35;;;4.50;;
25663;SDS011;13522;50.018;20.014;2023-07-02T08:56:51;12.05;;;5.75;;
25663;SDS011;13522;50.018;20.014;2023-07-02T09:00:06;12.43;;;5.85;;
25663;SDS011;13522;50.018;20.014;2023-07-02T09:06:35;7.28;;;4.53;;
25663;SDS011;13522;50.018;20.014;2023-07-02T09:09:47;8.30;;;4.88;;
25663;SDS011;13522;50.018;20.014;2023-07-02T09:13:04;7.33;;;4.25;;
25663;SDS011;13522;50.018;20.014;2023-07-02T09:16:25;7.53;;;4.68;;
25663;SDS011;13522;50.018;20.014;2023-07-02T09:19:49;6.63;;;4.23;;
25663;SDS011;13522;50.018;20.014;2023-07-02T09:23:02;8.28;;;4.23;;
25663;SDS011;13522;50.018;20.014;2023-07-02T09:26:20;6.68;;;4.00;;
25663;SDS011;13522;50.018;20.014;2023-07-02T09:29:33;8.85;;;4.00;;
25663;SDS011;13522;50.018;20.014;2023-07-02T09:32:46;6.83;;;3.93;;
25663;SDS011;13522;50.018;20.014;2023-07-02T09:35:59;8.53;;;3.85;;
25663;SDS011;13522;50.018;20.014;2023-07-02T09:39:12;6.73;;;3.60;;
25663;SDS011;13522;50.018;20.014;2023-07-02T09:42:28;6.98;;;3.58;;
25663;SDS011;13522;50.018;20.014;2023-07-02T09:45:43;6.55;;;4.20;;
25663;SDS011;13522;50.018;20.014;2023-07-02T09:48:57;11.83;;;5.18;;
25663;SDS011;13522;50.018;20.014;2023-07-02T09:52:11;11.08;;;3.93;;
25663;SDS011;13522;50.018;20.014;2023-07-02T09:55:24;9.50;;;3.95;;
25663;SDS011;13522;50.018;20.014;2023-07-02T09:58:37;7.13;;;4.08;;
25663;SDS011;13522;50.018;20.014;2023-07-02T10:01:49;8.80;;;4.83;;
25663;SDS011;13522;50.018;20.014;2023-07-02T10:05:02;8.63;;;5.20;;
25663;SDS011;13522;50.018;20.014;2023-07-02T10:08:15;10.70;;;5.23;;
25663;SDS011;13522;50.018;20.014;2023-07-02T10:11:36;9.40;;;4.30;;
25663;SDS011;13522;50.018;20.014;2023-07-02T10:14:49;7.98;;;6.00;;
25663;SDS011;13522;50.018;20.014;2023-07-02T10:18:03;5.88;;;4.35;;
25663;SDS011;13522;50.018;20.014;2023-07-02T10:21:17;13.50;;;9.60;;
25663;SDS011;13522;50.018;20.014;2023-07-02T10:24:30;16.38;;;11.23;;
25663;SDS011;13522;50.018;20.014;2023-07-02T10:27:42;7.83;;;4.98;;
25663;SDS011;13522;50.018;20.014;2023-07-02T10:30:54;7.05;;;4.55;;
25663;SDS011;13522;50.018;20.014;2023-07-02T10:34:07;7.03;;;4.13;;
25663;SDS011;13522;50.018;20.014;2023-07-02T10:37:19;10.33;;;6.73;;
25663;SDS011;13522;50.018;20.014;2023-07-02T10:40:32;7.40;;;4.65;;
25663;SDS011;13522;50.018;20.014;2023-07-02T10:43:44;8.63;;;4.48;;
25663;SDS011;13522;50.018;20.014;2023-07-02T10:46:57;7.00;;;3.70;;
25663;SDS011;13522;50.018;20.014;2023-07-02T10:50:16;5.15;;;2.53;;
25663;SDS011;13522;50.018;20.014;2023-07-02T10:53:30;3.98;;;3.00;;
25663;SDS011;13522;50.018;20.014;2023-07-02T10:56:42;10.05;;;3.90;;
25663;SDS011;13522;50.018;20.014;2023-07-02T11:00:02;6.40;;;4.05;;
25663;SDS011;13522;50.018;20.014;2023-07-02T11:03:20;6.23;;;3.95;;
25663;SDS011;13522;50.018;20.014;2023-07-02T11:06:35;11.00;;;4.55;;
25663;SDS011;13522;50.018;20.014;2023-07-02T11:09:51;12.35;;;6.23;;
25663;SDS011;13522;50.018;20.014;2023-07-02T11:13:11;5.43;;;3.60;;
25663;SDS011;13522;50.018;20.014;2023-07-02T11:16:25;11.30;;;3.88;;
25663;SDS011;13522;50.018;20.014;2023-07-02T11:19:42;4.48;;;3.18;;
25663;SDS011;13522;50.018;20.014;2023-07-02T11:23:00;5.83;;;3.10;;
25663;SDS011;13522;50.018;20.014;2023-07-02T11:26:12;3.18;;;2.58;;
25663;SDS011;13522;50.018;20.014;2023-07-02T11:29:24;4.73;;;3.78;;
25663;SDS011;13522;50.018;20.014;2023-07-02T11:32:48;3.55;;;2.55;;
25663;SDS011;13522;50.018;20.014;2023-07-02T11:36:03;4.20;;;3.45;;
25663;SDS011;13522;50.018;20.014;2023-07-02T11:39:17;6.68;;;2.68;;
25663;SDS011;13522;50.018;20.014;2023-07-02T11:42:31;5.65;;;2.85;;
25663;SDS011;13522;50.018;20.014;2023-07-02T11:45:43;5.83;;;4.43;;
25663;SDS011;13522;50.018;20.014;2023-07-02T11:48:55;3.98;;;2.35;;
25663;SDS011;13522;50.018;20.014;2023-07-02T11:52:08;3.73;;;2.70;;
25663;SDS011;13522;50.018;20.014;2023-07-02T11:55:21;5.28;;;3.33;;
25663;SDS011;13522;50.018;20.014;2023-07-02T11:58:33;3.95;;;2.73;;
25663;SDS011;13522;50.018;20.014;2023-07-02T12:01:45;2.78;;;2.00;;
25663;SDS011;13522;50.018;20.014;2023-07-02T12:04:58;3.25;;;2.33;;
25663;SDS011;13522;50.018;20.014;2023-07-02T12:08:13;4.28;;;2.18;;
25663;SDS011;13522;50.018;20.014;2023-07-02T12:11:25;8.20;;;2.40;;
25663;SDS011;13522;50.018;20.014;2023-07-02T12:14:38;4.03;;;2.83;;
25663;SDS011;13522;50.018;20.014;2023-07-02T12:17:51;3.33;;;2.20;;
25663;SDS011;13522;50.018;20.014;2023-07-02T12:21:04;6.20;;;2.05;;
25663;SDS011;13522;50.018;20.014;2023-07-02T12:24:16;6.60;;;2.45;;
25663;SDS011;13522;50.018;20.014;2023-07-02T12:27:29;4.10;;;3.23;;
25663;SDS011;13522;50.018;20.014;2023-07-02T12:30:42;2.80;;;2.30;;
25663;SDS011;13522;50.018;20.014;2023-07-02T12:33:54;2.48;;;1.70;;
25663;SDS011;13522;50.018;20.014;2023-07-02T12:37:06;4.48;;;2.78;;
25663;SDS011;13522;50.018;20.014;2023-07-02T12:40:21;4.80;;;2.20;;
25663;SDS011;13522;50.018;20.014;2023-07-02T12:43:33;5.58;;;1.63;;
25663;SDS011;13522;50.018;20.014;2023-07-02T12:46:46;2.48;;;1.80;;
25663;SDS011;13522;50.018;20.014;2023-07-02T12:49:59;4.10;;;1.78;;
25663;SDS011;13522;50.018;20.014;2023-07-02T12:53:13;3.38;;;1.83;;
25663;SDS011;13522;50.018;20.014;2023-07-02T12:56:25;3.75;;;1.43;;
25663;SDS011;13522;50.018;20.014;2023-07-02T12:59:37;4.38;;;1.43;;
25663;SDS011;13522;50.018;20.014;2023-07-02T13:02:50;2.53;;;1.65;;
25663;SDS011;13522;50.018;20.014;2023-07-02T13:06:05;4.38;;;1.63;;
25663;SDS011;13522;50.018;20.014;2023-07-02T13:09:17;6.03;;;1.68;;
25663;SDS011;13522;50.018;20.014;2023-07-02T13:12:29;3.75;;;1.85;;
25663;SDS011;13522;50.018;20.014;2023-07-02T13:15:42;3.85;;;2.03;;
25663;SDS011;13522;50.018;20.014;2023-07-02T13:18:55;3.15;;;2.33;;
25663;SDS011;13522;50.018;20.014;2023-07-02T13:22:08;3.75;;;2.08;;
25663;SDS011;13522;50.018;20.014;2023-07-02T13:25:20;2.80;;;2.28;;
25663;SDS011;13522;50.018;20.014;2023-07-02T13:28:33;3.28;;;2.05;;
25663;SDS011;13522;50.018;20.014;2023-07-02T13:31:45;9.30;;;3.28;;
25663;SDS011;13522;50.018;20.014;2023-07-02T13:34:57;3.50;;;2.15;;
25663;SDS011;13522;50.018;20.014;2023-07-02T13:38:09;7.53;;;6.23;;
25663;SDS011;13522;50.018;20.014;2023-07-02T13:41:22;7.63;;;3.20;;
25663;SDS011;13522;50.018;20.014;2023-07-02T13:44:35;6.35;;;2.70;;
25663;SDS011;13522;50.018;20.014;2023-07-02T13:47:47;3.18;;;2.40;;
25663;SDS011;13522;50.018;20.014;2023-07-02T13:51:00;2.60;;;2.18;;
25663;SDS011;13522;50.018;20.014;2023-07-02T13:54:13;3.78;;;2.63;;
25663;SDS011;13522;50.018;20.014;2023-07-02T13:57:25;3.53;;;2.23;;
25663;SDS011;13522;50.018;20.014;2023-07-02T14:00:37;13.65;;;10.23;;
25663;SDS011;13522;50.018;20.014;2023-07-02T14:03:50;10.25;;;2.60;;
25663;SDS011;13522;50.018;20.014;2023-07-02T14:07:04;3.20;;;1.33;;
25663;SDS011;13522;50.018;20.014;2023-07-02T14:10:17;6.03;;;1.80;;
25663;SDS011;13522;50.018;20.014;2023-07-02T14:13:32;3.58;;;1.18;;
25663;SDS011;13522;50.018;20.014;2023-07-02T14:16:46;3.88;;;1.33;;
25663;SDS011;13522;50.018;20.014;2023-07-02T14:19:58;1.25;;;0.70;;
25663;SDS011;13522;50.018;20.014;2023-07-02T14:23:12;2.28;;;1.05;;
25663;SDS011;13522;50.018;20.014;2023-07-02T14:26:24;2.23;;;0.88;;
25663;SDS011;13522;50.018;20.014;2023-07-02T14:29:37;2.60;;;1.10;;
25663;SDS011;13522;50.018;20.014;2023-07-02T14:32:51;3.60;;;0.90;;
25663;SDS011;13522;50.018;20.014;2023-07-02T14:36:04;2.33;;;1.25;;
25663;SDS011;13522;50.018;20.014;2023-07-02T14:39:18;3.58;;;1.80;;
25663;SDS011;13522;50.018;20.014;2023-07-02T14:42:31;5.23;;;2.48;;
25663;SDS011;13522;50.018;20.014;2023-07-02T14:45:45;3.18;;;2.23;;
25663;SDS011;13522;50.018;20.014;2023-07-02T14:49:00;2.25;;;1.65;;
25663;SDS011;13522;50.018;20.014;2023-07-02T14:52:12;3.45;;;1.10;;
25663;SDS011;13522;50.018;20.014;2023-07-02T14:55:26;4.90;;;3.23;;
25663;SDS011;13522;50.018;20.014;2023-07-02T14:58:39;3.53;;;2.30;;
25663;SDS011;13522;50.018;20.014;2023-07-02T15:01:52;11.08;;;5.33;;
25663;SDS011;13522;50.018;20.014;2023-07-02T15:05:06;1.90;;;1.30;;
25663;SDS011;13522;50.018;20.014;2023-07-02T15:08:19;2.48;;;1.50;;
25663;SDS011;13522;50.018;20.014;2023-07-02T15:11:33;2.03;;;1.23;;
25663;SDS011;13522;50.018;20.014;2023-07-02T15:14:45;6.98;;;5.05;;
25663;SDS011;13522;50.018;20.014;2023-07-02T15:17:57;8.18;;;6.03;;
25663;SDS011;13522;50.018;20.014;2023-07-02T15:21:11;17.65;;;12.15;;
25663;SDS011;13522;50.018;20.014;2023-07-02T15:24:24;6.55;;;4.08;;
25663;SDS011;13522;50.018;20.014;2023-07-02T15:27:38;3.88;;;2.00;;
25663;SDS011;13522;50.018;20.014;2023-07-02T15:30:52;3.03;;;1.55;;
25663;SDS011;13522;50.018;20.014;2023-07-02T15:34:06;4.93;;;2.68;;
25663;SDS011;13522;50.018;20.014;2023-07-02T15:37:21;3.68;;;1.83;;
25663;SDS011;13522;50.018;20.014;2023-07-02T15:40:33;2.23;;;1.43;;
25663;SDS011;13522;50.018;20.014;2023-07-02T15:43:46;4.60;;;1.80;;
25663;SDS011;13522;50.018;20.014;2023-07-02T15:46:59;4.78;;;1.60;;
25663;SDS011;13522;50.018;20.014;2023-07-02T15:50:12;4.33;;;2.88;;
25663;SDS011;13522;50.018;20.014;2023-07-02T15:53:24;5.23;;;1.98;;
25663;SDS011;13522;50.018;20.014;2023-07-02T15:56:37;5.18;;;3.03;;
25663;SDS011;13522;50.018;20.014;2023-07-02T15:59:49;3.53;;;2.10;;
25663;SDS011;13522;50.018;20.014;2023-07-02T16:03:03;4.30;;;2.10;;
25663;SDS011;13522;50.018;20.014;2023-07-02T16:06:16;6.45;;;2.13;;
25663;SDS011;13522;50.018;20.014;2023-07-02T16:09:31;4.35;;;2.43;;
25663;SDS011;13522;50.018;20.014;2023-07-02T16:12:43;3.05;;;1.98;;
25663;SDS011;13522;50.018;20.014;2023-07-02T16:15:56;3.53;;;1.98;;
25663;SDS011;13522;50.018;20.014;2023-07-02T16:19:12;3.80;;;2.05;;
25663;SDS011;13522;50.018;20.014;2023-07-02T16:22:25;4.65;;;1.90;;
25663;SDS011;13522;50.018;20.014;2023-07-02T16:25:38;5.65;;;1.83;;
25663;SDS011;13522;50.018;20.014;2023-07-02T16:28:50;6.95;;;1.70;;
25663;SDS011;13522;50.018;20.014;2023-07-02T16:32:03;3.83;;;2.35;;
25663;SDS011;13522;50.018;20.014;2023-07-02T16:35:22;5.95;;;2.10;;
25663;SDS011;13522;50.018;20.014;2023-07-02T16:38:34;3.58;;;1.55;;
25663;SDS011;13522;50.018;20.014;2023-07-02T16:41:48;10.50;;;3.98;;
25663;SDS011;13522;50.018;20.014;2023-07-02T16:45:01;6.65;;;4.65;;
25663;SDS011;13522;50.018;20.014;2023-07-02T16:48:16;5.00;;;2.55;;
25663;SDS011;13522;50.018;20.014;2023-07-02T16:51:29;4.78;;;2.28;;
25663;SDS011;13522;50.018;20.014;2023-07-02T16:54:44;3.88;;;1.80;;
25663;SDS011;13522;50.018;20.014;2023-07-02T16:58:00;6.37;;;3.13;;
25663;SDS011;13522;50.018;20.014;2023-07-02T17:01:12;5.43;;;1.95;;
25663;SDS011;13522;50.018;20.014;2023-07-02T17:04:25;5.38;;;2.25;;
25663;SDS011;13522;50.018;20.014;2023-07-02T17:07:38;2.50;;;1.70;;
25663;SDS011;13522;50.018;20.014;2023-07-02T17:10:51;2.55;;;1.60;;
25663;SDS011;13522;50.018;20.014;2023-07-02T17:14:03;2.95;;;1.90;;
25663;SDS011;13522;50.018;20.014;2023-07-02T17:17:16;3.13;;;1.83;;
25663;SDS011;13522;50.018;20.014;2023-07-02T17:20:32;2.88;;;1.83;;
25663;SDS011;13522;50.018;20.014;2023-07-02T17:23:44;5.00;;;2.28;;
25663;SDS011;13522;50.018;20.014;2023-07-02T17:26:57;4.65;;;2.50;;
25663;SDS011;13522;50.018;20.014;2023-07-02T17:30:12;3.85;;;1.70;;
25663;SDS011;13522;50.018;20.014;2023-07-02T17:33:25;5.45;;;3.13;;
25663;SDS011;13522;50.018;20.014;2023-07-02T17:36:37;2.03;;;1.40;;
25663;SDS011;13522;50.018;20.014;2023-07-02T17:39:51;4.53;;;1.90;;
25663;SDS011;13522;50.018;20.014;2023-07-02T17:43:03;3.43;;;1.98;;
25663;SDS011;13522;50.018;20.014;2023-07-02T17:46:16;8.20;;;4.30;;
25663;SDS011;13522;50.018;20.014;2023-07-02T17:49:29;12.10;;;7.85;;
25663;SDS011;13522;50.018;20.014;2023-07-02T17:52:44;9.48;;;7.05;;
25663;SDS011;13522;50.018;20.014;2023-07-02T17:55:57;10.93;;;6.40;;
25663;SDS011;13522;50.018;20.014;2023-07-02T17:59:10;7.45;;;5.15;;
25663;SDS011;13522;50.018;20.014;2023-07-02T18:02:22;12.23;;;9.40;;
25663;SDS011;13522;50.018;20.014;2023-07-02T18:05:35;5.95;;;3.88;;
25663;SDS011;13522;50.018;20.014;2023-07-02T18:08:48;3.40;;;2.63;;
25663;SDS011;13522;50.018;20.014;2023-07-02T18:12:00;8.20;;;4.35;;
25663;SDS011;13522;50.018;20.014;2023-07-02T18:15:14;7.95;;;3.25;;
25663;SDS011;13522;50.018;20.014;2023-07-02T18:18:26;13.78;;;10.28;;
25663;SDS011;13522;50.018;20.014;2023-07-02T18:21:39;10.10;;;5.70;;
25663;SDS011;13522;50.018;20.014;2023-07-02T18:24:52;8.70;;;6.25;;
25663;SDS011;13522;50.018;20.014;2023-07-02T18:28:05;6.23;;;3.98;;
25663;SDS011;13522;50.018;20.014;2023-07-02T18:31:20;10.25;;;6.25;;
25663;SDS011;13522;50.018;20.014;2023-07-02T18:34:34;7.13;;;4.33;;
25663;SDS011;13522;50.018;20.014;2023-07-02T18:37:50;3.88;;;2.80;;
25663;SDS011;13522;50.018;20.014;2023-07-02T18:41:04;11.88;;;7.78;;
25663;SDS011;13522;50.018;20.014;2023-07-02T18:44:18;18.18;;;12.40;;
25663;SDS011;13522;50.018;20.014;2023-07-02T18:47:32;8.58;;;5.93;;
25663;SDS011;13522;50.018;20.014;2023-07-02T18:50:45;7.53;;;3.45;;
25663;SDS011;13522;50.018;20.014;2023-07-02T18:53:58;6.60;;;3.10;;
25663;SDS011;13522;50.018;20.014;2023-07-02T18:57:11;3.65;;;2.80;;